Time;durP1;ratioP1;P1;durP2;ratioP2;P2;SDS_P1;SDS_P2;PMS_P1;PMS_P2;Temp;Humidity;BMP_temperature;BMP_pressure;BME280_temperature;BME280_humidity;BME280_pressure;Samples;Min_cycle;Max_cycle;Signal;HPM_P1;HPM_P2
2022/01/21 00:00:55;;;;;;;14.02;3.03;;;;;;;-0.28;100.00;103416.66;5070451;28;20101;-74
2022/01/21 00:03:21;;;;;;;12.45;2.55;;;;;;;-0.21;100.00;103428.13;5070803;28;20353;-74
2022/01/21 00:05:46;;;;;;;14.57;3.20;;;;;;;-0.15;100.00;103416.63;5070513;28;20020;-75
2022/01/21 00:08:11;;;;;;;18.08;4.07;;;;;;;-0.07;100.00;103428.16;5069232;28;20031;-75
2022/01/21 00:10:36;;;;;;;15.43;3.33;;;;;;;0.00;100.00;103420.09;5051419;28;20384;-74
2022/01/21 00:13:04;;;;;;;15.20;3.55;;;;;;;0.08;100.00;103425.66;5058156;28;20475;-75
2022/01/21 00:15:29;;;;;;;17.85;3.67;;;;;;;0.14;100.00;103425.13;5065474;28;20025;-74
2022/01/21 00:17:55;;;;;;;14.20;3.85;;;;;;;0.14;100.00;103431.13;5032702;28;20389;-75
2022/01/21 00:31:15;;;;;;;14.93;3.30;;;;;;;0.00;100.00;103419.22;5064766;28;20036;-74
2022/01/21 00:33:41;;;;;;;15.95;3.47;;;;;;;-0.14;100.00;103407.31;5069618;28;20422;-74
2022/01/21 00:36:06;;;;;;;16.25;3.17;;;;;;;-0.19;100.00;103413.78;5050269;28;20017;-74
2022/01/21 00:38:32;;;;;;;16.63;3.28;;;;;;;-0.29;100.00;103409.81;5059278;28;20159;-75
2022/01/21 00:41:01;;;;;;;17.55;3.45;;;;;;;-0.35;100.00;103421.28;5070229;28;20070;-75
2022/01/21 00:43:43;;;;;;;11.52;3.25;;;;;;;-0.44;100.00;103417.38;5048655;28;20144;-75
2022/01/21 00:46:08;;;;;;;12.95;3.15;;;;;;;-0.53;100.00;103429.53;5049572;28;20079;-75
2022/01/21 00:48:34;;;;;;;9.65;3.10;;;;;;;-0.58;100.00;103432.56;5049642;28;20144;-75
2022/01/21 00:50:59;;;;;;;18.65;2.80;;;;;;;-0.63;100.00;103428.84;5033033;28;20444;-75
2022/01/21 00:53:24;;;;;;;14.07;2.95;;;;;;;-0.68;100.00;103422.59;5058815;28;20501;-75
2022/01/21 00:55:50;;;;;;;17.15;3.50;;;;;;;-0.69;100.00;103425.94;5054808;28;20032;-75
2022/01/21 00:58:15;;;;;;;9.05;2.80;;;;;;;-0.76;100.00;103422.13;5049984;28;20390;-75
2022/01/21 01:00:40;;;;;;;11.73;2.97;;;;;;;-0.83;100.00;103420.84;5049478;28;20403;-75
2022/01/21 01:03:06;;;;;;;13.52;3.20;;;;;;;-0.83;100.00;103428.47;5038460;28;20144;-75
2022/01/21 01:05:31;;;;;;;17.27;3.20;;;;;;;-0.87;100.00;103430.72;5044813;28;20094;-75
2022/01/21 01:07:58;;;;;;;15.35;3.67;;;;;;;-0.89;100.00;103422.13;5052783;28;20059;-75
2022/01/21 01:10:35;;;;;;;10.60;3.00;;;;;;;-0.91;100.00;103424.56;5051327;28;20031;-80
2022/01/21 01:19:53;;;;;;;14.30;2.92;;;;;;;-0.94;100.00;103418.38;5049681;28;20047;-80
2022/01/21 01:21:13;;;;;;;16.50;2.90;;;;;;;-0.98;100.00;103419.84;5049530;28;20109;-80
2022/01/21 01:24:00;;;;;;;16.45;2.72;;;;;;;-0.96;100.00;103412.31;5048914;28;20037;-80
2022/01/21 01:29:08;;;;;;;19.20;3.17;;;;;;;-0.83;100.00;103414.88;5041354;28;20427;-80
2022/01/21 01:31:33;;;;;;;10.93;2.40;;;;;;;-0.79;100.00;103404.06;5029424;28;20037;-80
2022/01/21 01:34:01;;;;;;;20.63;2.42;;;;;;;-0.69;100.00;103410.66;5049072;28;20021;-80
2022/01/21 01:36:26;;;;;;;15.93;2.85;;;;;;;-0.65;100.00;103402.41;5036643;28;20061;-80
2022/01/21 01:39:05;;;;;;;10.18;2.90;;;;;;;-0.64;100.00;103386.34;5038339;28;20036;-75
2022/01/21 01:41:40;;;;;;;14.10;2.63;;;;;;;-0.54;100.00;103391.22;5042621;28;20613;-75
2022/01/21 01:49:36;;;;;;;18.80;2.42;;;;;;;-0.63;100.00;103408.47;5059198;28;20062;-75
2022/01/21 01:52:08;;;;;;;13.13;2.33;;;;;;;-0.65;100.00;103410.94;5048204;28;20025;-75
2022/01/21 01:54:38;;;;;;;15.07;2.25;;;;;;;-0.68;100.00;103410.72;5069295;28;20036;-75
2022/01/21 01:57:05;;;;;;;15.95;2.60;;;;;;;-0.71;100.00;103408.00;5068172;28;20055;-75
2022/01/21 01:59:30;;;;;;;20.33;2.53;;;;;;;-0.73;100.00;103403.59;5068240;28;20111;-75
2022/01/21 02:02:02;;;;;;;17.77;2.30;;;;;;;-0.78;100.00;103397.31;5068368;28;20111;-75
2022/01/21 02:04:28;;;;;;;16.35;2.00;;;;;;;-0.82;100.00;103403.91;5068151;28;20032;-75
2022/01/21 02:06:53;;;;;;;8.15;1.98;;;;;;;-0.87;100.00;103400.16;5068215;28;20035;-75
2022/01/21 02:09:19;;;;;;;14.20;2.03;;;;;;;-0.91;100.00;103409.28;5067201;28;20537;-80
2022/01/21 02:11:44;;;;;;;9.60;2.05;;;;;;;-0.96;100.00;103415.75;5050171;28;20040;-80
2022/01/21 02:14:14;;;;;;;14.65;2.15;;;;;;;-0.95;100.00;103414.06;5057306;28;20021;-80
2022/01/21 02:17:10;;;;;;;13.88;2.10;;;;;;;-0.99;100.00;103407.91;5067884;28;20084;-80
2022/01/21 02:22:18;;;;;;;15.85;2.30;;;;;;;-1.06;100.00;103405.75;5059194;28;20202;-80
2022/01/21 02:24:54;;;;;;;16.05;2.17;;;;;;;-1.09;100.00;103402.97;5068758;28;20029;-80
2022/01/21 02:27:19;;;;;;;10.57;1.85;;;;;;;-1.11;100.00;103404.56;5050173;28;20115;-81
2022/01/21 02:29:52;;;;;;;10.77;1.70;;;;;;;-1.18;100.00;103396.44;5064570;28;20025;-80
2022/01/21 02:32:19;;;;;;;9.80;2.17;;;;;;;-1.23;100.00;103402.09;5058366;28;20028;-80
2022/01/21 02:34:46;;;;;;;13.23;2.08;;;;;;;-1.27;100.00;103414.50;5049551;28;20029;-80
2022/01/21 02:37:14;;;;;;;12.93;2.22;;;;;;;-1.32;100.00;103411.69;5058063;28;20035;-80
2022/01/21 02:39:39;;;;;;;8.20;1.85;;;;;;;-1.39;100.00;103401.88;5050368;28;20025;-75
2022/01/21 02:42:05;;;;;;;4.47;1.65;;;;;;;-1.37;100.00;103410.50;5048527;28;20123;-75
2022/01/21 02:44:30;;;;;;;7.95;2.15;;;;;;;-1.42;100.00;103408.41;5051325;28;20047;-75
2022/01/21 02:46:58;;;;;;;7.53;1.80;;;;;;;-1.47;100.00;103412.31;5066317;28;20033;-75
2022/01/21 02:49:25;;;;;;;6.40;1.77;;;;;;;-1.54;100.00;103405.06;5058546;28;20489;-75
2022/01/21 02:51:52;;;;;;;9.50;2.10;;;;;;;-1.59;100.00;103407.31;5069799;28;20112;-75
2022/01/21 02:54:17;;;;;;;11.48;2.40;;;;;;;-1.63;100.00;103410.41;5055715;28;20447;-75
2022/01/21 02:56:42;;;;;;;8.73;1.77;;;;;;;-1.67;100.00;103413.53;5065856;28;20036;-75
2022/01/21 02:59:10;;;;;;;7.70;2.03;;;;;;;-1.68;100.00;103420.28;5071758;28;20028;-75
2022/01/21 03:01:37;;;;;;;8.48;2.00;;;;;;;-1.69;100.00;103421.06;5045814;28;20083;-75
2022/01/21 03:04:04;;;;;;;7.53;1.73;;;;;;;-1.69;100.00;103421.06;5067176;28;20498;-75
2022/01/21 03:06:30;;;;;;;11.40;2.13;;;;;;;-1.71;100.00;103422.63;5066791;28;20024;-75
2022/01/21 03:08:57;;;;;;;12.02;2.45;;;;;;;-1.73;100.00;103420.75;5071805;28;20173;-75
2022/01/21 03:11:24;;;;;;;8.48;1.70;;;;;;;-1.78;100.00;103417.91;5037801;28;20024;-75
2022/01/21 03:13:50;;;;;;;7.03;1.95;;;;;;;-1.79;100.00;103420.34;5052798;28;20427;-75
2022/01/21 03:16:15;;;;;;;6.93;1.58;;;;;;;-1.84;100.00;103416.63;5066071;28;20032;-75
2022/01/21 03:18:41;;;;;;;15.88;2.05;;;;;;;-1.88;100.00;103414.63;5058816;28;20036;-75
2022/01/21 03:21:09;;;;;;;11.18;2.00;;;;;;;-1.92;100.00;103426.25;5056025;28;20027;-75
2022/01/21 03:23:35;;;;;;;7.75;1.70;;;;;;;-1.93;100.00;103429.56;5071681;28;20056;-75
2022/01/21 03:26:00;;;;;;;5.90;1.88;;;;;;;-1.94;100.00;103432.00;5069751;28;20059;-75
2022/01/21 03:28:25;;;;;;;9.07;1.98;;;;;;;-1.98;100.00;103431.78;5062697;28;20108;-75
2022/01/21 03:30:55;;;;;;;10.32;1.83;;;;;;;-2.01;100.00;103430.69;5053735;28;20032;-75
2022/01/21 03:33:20;;;;;;;8.25;2.00;;;;;;;-2.02;100.00;103436.56;5045548;28;20036;-75
2022/01/21 03:35:45;;;;;;;12.38;2.15;;;;;;;-2.03;100.00;103429.69;5053685;28;20384;-75
2022/01/21 03:38:11;;;;;;;6.75;1.90;;;;;;;-2.00;100.00;103432.47;5070903;28;20029;-75
2022/01/21 03:40:36;;;;;;;7.55;1.73;;;;;;;-1.98;100.00;103433.47;5065613;28;20032;-75
2022/01/21 03:43:01;;;;;;;8.38;1.85;;;;;;;-2.09;100.00;103414.03;5071150;28;20049;-75
2022/01/21 03:45:27;;;;;;;11.98;2.20;;;;;;;-1.98;100.00;103434.31;5037085;28;20036;-75
2022/01/21 03:47:52;;;;;;;8.73;2.20;;;;;;;-1.97;100.00;103437.75;5065227;28;20029;-75
2022/01/21 03:50:31;;;;;;;12.60;2.00;;;;;;;-1.93;100.00;103438.84;5054319;28;20029;-75
2022/01/21 03:52:58;;;;;;;15.05;2.25;;;;;;;-1.90;100.00;103434.84;5055874;28;20029;-75
2022/01/21 03:55:23;;;;;;;8.88;1.70;;;;;;;-1.89;100.00;103443.34;5044823;28;20039;-75
2022/01/21 03:57:49;;;;;;;13.00;2.28;;;;;;;-1.90;100.00;103436.50;5070680;28;20033;-75
2022/01/21 04:00:22;;;;;;;9.18;1.77;;;;;;;-1.88;100.00;103447.66;5068988;28;20078;-75
2022/01/21 04:02:48;;;;;;;11.75;1.60;;;;;;;-1.85;100.00;103448.78;5053940;28;20051;-75
2022/01/21 04:05:14;;;;;;;6.53;1.50;;;;;;;-1.81;100.00;103445.66;5039699;28;20029;-75
2022/01/21 04:07:39;;;;;;;13.02;1.88;;;;;;;-1.75;100.00;103440.97;5050799;28;20024;-75
2022/01/21 04:10:05;;;;;;;12.55;1.92;;;;;;;-1.72;100.00;103433.59;5062822;28;20031;-75
2022/01/21 04:12:31;;;;;;;10.35;1.50;;;;;;;-1.67;100.00;103429.69;5070932;28;20028;-75
2022/01/21 04:14:59;;;;;;;11.70;1.92;;;;;;;-1.62;100.00;103429.97;5049276;28;20035;-75
2022/01/21 04:17:25;;;;;;;10.20;1.63;;;;;;;-1.60;100.00;103426.78;5051473;28;20033;-75
2022/01/21 04:19:51;;;;;;;8.25;1.70;;;;;;;-1.56;100.00;103426.97;5054913;28;20417;-75
2022/01/21 04:22:16;;;;;;;11.55;1.90;;;;;;;-1.57;100.00;103423.56;5033289;28;20040;-75
2022/01/21 04:24:44;;;;;;;18.70;1.95;;;;;;;-1.58;100.00;103426.00;5058782;28;20032;-75
2022/01/21 04:27:10;;;;;;;14.25;1.90;;;;;;;-1.54;100.00;103427.94;5050997;28;20483;-75
2022/01/21 04:29:35;;;;;;;12.25;1.80;;;;;;;-1.55;100.00;103426.19;5065365;28;20085;-75
2022/01/21 04:32:00;;;;;;;11.38;2.30;;;;;;;-1.53;100.00;103424.63;5070816;28;20032;-75
2022/01/21 04:34:26;;;;;;;12.10;2.00;;;;;;;-1.55;100.00;103424.53;5050793;28;20025;-75
2022/01/21 04:36:51;;;;;;;7.90;2.08;;;;;;;-1.53;100.00;103429.72;5070151;28;20028;-75
2022/01/21 04:39:23;;;;;;;11.55;2.20;;;;;;;-1.56;100.00;103416.78;5059859;28;20021;-75
2022/01/21 04:47:18;;;;;;;7.90;2.15;;;;;;;-1.50;100.00;103435.03;5058755;28;20091;-75
2022/01/21 04:49:48;;;;;;;7.05;1.95;;;;;;;-1.48;100.00;103433.44;5063578;28;20009;-75
2022/01/21 04:52:14;;;;;;;14.40;1.95;;;;;;;-1.48;100.00;103425.81;5051630;28;20044;-75
2022/01/21 04:54:39;;;;;;;13.70;2.00;;;;;;;-1.49;100.00;103431.69;5050742;28;20187;-75
2022/01/21 04:57:05;;;;;;;12.05;2.20;;;;;;;-1.49;100.00;103422.38;5062266;28;20339;-75
2022/01/21 04:59:31;;;;;;;6.30;1.70;;;;;;;-1.50;100.00;103407.91;5062541;28;20107;-75
2022/01/21 05:01:57;;;;;;;13.15;2.20;;;;;;;-1.48;100.00;103413.97;5069965;28;20099;-75
2022/01/21 05:04:22;;;;;;;11.63;1.90;;;;;;;-1.49;100.00;103409.66;5051164;28;20024;-75
2022/01/21 05:06:50;;;;;;;11.75;1.88;;;;;;;-1.48;100.00;103411.44;5043140;28;20411;-75
2022/01/21 05:09:19;;;;;;;9.18;1.80;;;;;;;-1.45;100.00;103420.94;5057177;28;20111;-75
2022/01/21 05:11:46;;;;;;;10.27;1.77;;;;;;;-1.44;100.00;103418.50;5032332;28;20028;-75
2022/01/21 05:14:19;;;;;;;10.18;2.13;;;;;;;-1.44;100.00;103417.63;5043922;28;20031;-75
2022/01/21 05:16:50;;;;;;;15.82;2.20;;;;;;;-1.44;100.00;103415.97;5045786;28;20035;-75
2022/01/21 05:19:17;;;;;;;9.38;1.90;;;;;;;-1.48;100.00;103421.63;5061519;28;20060;-75
2022/01/21 05:21:47;;;;;;;5.53;1.83;;;;;;;-1.51;100.00;103420.53;5069079;28;20051;-75
2022/01/21 05:24:14;;;;;;;9.20;1.95;;;;;;;-1.53;100.00;103419.53;5050411;28;20095;-75
2022/01/21 05:26:41;;;;;;;8.63;1.85;;;;;;;-1.53;100.00;103419.53;5069246;28;20463;-75
2022/01/21 05:29:08;;;;;;;8.38;1.98;;;;;;;-1.54;100.00;103426.28;5068782;28;20028;-75
2022/01/21 05:31:35;;;;;;;6.85;1.98;;;;;;;-1.53;100.00;103422.97;5031657;28;20029;-75
2022/01/21 05:34:00;;;;;;;12.70;2.30;;;;;;;-1.51;100.00;103418.88;5052336;28;20020;-75
2022/01/21 05:36:27;;;;;;;12.02;2.40;;;;;;;-1.51;100.00;103418.88;5063718;28;20032;-75
2022/01/21 05:38:53;;;;;;;7.43;2.20;;;;;;;-1.53;100.00;103414.47;5068813;28;20031;-75
2022/01/21 05:41:21;;;;;;;17.10;2.58;;;;;;;-1.50;100.00;103425.69;5050977;28;20499;-75
2022/01/21 05:43:47;;;;;;;11.10;2.30;;;;;;;-1.54;100.00;103421.22;5039377;28;20049;-75
2022/01/21 05:47:13;;;;;;;6.90;2.00;;;;;;;-1.46;100.00;103427.69;5068441;28;20078;-75
2022/01/21 05:49:08;;;;;;;9.60;2.20;;;;;;;-1.48;100.00;103423.28;5051148;28;20451;-75
2022/01/21 05:51:33;;;;;;;9.95;2.38;;;;;;;-1.46;100.00;103426.81;5055829;28;20494;-75
2022/01/21 05:53:58;;;;;;;10.25;2.20;;;;;;;-1.47;100.00;103433.56;5051734;28;20025;-75
2022/01/21 05:56:25;;;;;;;11.25;2.20;;;;;;;-1.49;100.00;103429.13;5067024;28;20025;-75
2022/01/21 05:58:51;;;;;;;8.88;2.47;;;;;;;-1.49;100.00;103440.19;5050051;28;20055;-75
2022/01/21 06:01:17;;;;;;;10.82;2.13;;;;;;;-1.48;100.00;103447.03;5060481;28;20024;-75
2022/01/21 06:03:43;;;;;;;7.40;2.00;;;;;;;-1.51;100.00;103445.97;5067983;28;20028;-75
2022/01/21 06:06:09;;;;;;;8.27;2.17;;;;;;;-1.51;100.00;103441.78;5068064;28;20025;-75
2022/01/21 06:08:36;;;;;;;8.73;2.17;;;;;;;-1.48;100.00;103439.41;5061322;28;20035;-75
2022/01/21 06:11:01;;;;;;;12.10;2.00;;;;;;;-1.51;100.00;103436.69;5068813;28;20024;-75
2022/01/21 06:13:27;;;;;;;10.73;2.00;;;;;;;-1.54;100.00;103446.63;5050862;28;20078;-75
2022/01/21 06:15:54;;;;;;;7.82;2.08;;;;;;;-1.60;100.00;103451.31;5067604;28;20104;-75
2022/01/21 06:18:19;;;;;;;11.70;2.38;;;;;;;-1.62;100.00;103452.84;5067090;28;20033;-75
2022/01/21 06:20:45;;;;;;;11.50;2.08;;;;;;;-1.61;100.00;103450.44;5064590;28;20039;-75
2022/01/21 06:23:10;;;;;;;7.25;2.30;;;;;;;-1.61;100.00;103455.50;5051480;28;20039;-75
2022/01/21 06:25:36;;;;;;;12.00;2.20;;;;;;;-1.62;100.00;103448.66;5069536;28;20038;-75
2022/01/21 06:28:01;;;;;;;10.65;2.20;;;;;;;-1.57;100.00;103455.75;5071841;28;20031;-75
2022/01/21 06:30:26;;;;;;;8.30;2.40;;;;;;;-1.51;100.00;103461.22;5071981;28;20458;-75
2022/01/21 06:32:52;;;;;;;10.73;2.28;;;;;;;-1.48;100.00;103463.97;5072787;28;20030;-75
2022/01/21 06:35:17;;;;;;;15.73;2.13;;;;;;;-1.37;100.00;103469.00;5072125;28;20032;-75
2022/01/21 06:37:42;;;;;;;7.93;2.40;;;;;;;-1.26;100.00;103479.88;5056917;28;20020;-75
2022/01/21 06:40:09;;;;;;;13.85;2.13;;;;;;;-1.12;100.00;103484.22;5042013;28;20116;-75
2022/01/21 06:42:36;;;;;;;12.23;2.38;;;;;;;-1.00;100.00;103490.13;5070672;28;20029;-75
2022/01/21 06:45:02;;;;;;;13.38;2.33;;;;;;;-0.95;100.00;103488.75;5071538;28;20371;-75
2022/01/21 06:47:28;;;;;;;10.82;2.33;;;;;;;-0.83;100.00;103487.03;5052150;28;20024;-75
2022/01/21 06:49:54;;;;;;;16.60;2.35;;;;;;;-0.72;100.00;103487.72;5072504;28;20028;-75
2022/01/21 06:52:21;;;;;;;14.35;2.33;;;;;;;-0.63;100.00;103488.31;5058636;28;20020;-75
2022/01/21 06:54:47;;;;;;;11.30;2.30;;;;;;;-0.54;100.00;103480.34;5061616;28;20479;-75
2022/01/21 06:57:13;;;;;;;11.27;2.30;;;;;;;-0.44;100.00;103488.69;5035657;28;20621;-75
2022/01/21 06:59:38;;;;;;;12.35;2.90;;;;;;;-0.34;100.00;103482.50;5053322;28;20032;-75
2022/01/21 07:02:04;;;;;;;11.55;2.30;;;;;;;-0.25;100.00;103487.31;5070853;28;20037;-75
2022/01/21 07:04:29;;;;;;;12.07;2.50;;;;;;;-0.18;100.00;103497.97;5063164;28;20087;-75
2022/01/21 07:06:57;;;;;;;10.65;2.33;;;;;;;-0.13;100.00;103496.59;5064245;28;20028;-75
2022/01/21 07:09:23;;;;;;;13.98;2.50;;;;;;;-0.02;100.00;103498.16;5052057;28;20027;-75
2022/01/21 07:11:48;;;;;;;14.70;2.42;;;;;;;0.04;100.00;103490.00;5062759;28;20409;-75
2022/01/21 07:14:14;;;;;;;13.38;2.70;;;;;;;0.10;100.00;103499.69;5064079;28;20082;-75
2022/01/21 07:16:39;;;;;;;14.75;2.78;;;;;;;0.16;100.00;103500.06;5068481;28;20028;-75
2022/01/21 07:19:04;;;;;;;12.63;2.63;;;;;;;0.20;100.00;103505.47;5049372;28;20064;-75
2022/01/21 07:21:30;;;;;;;11.60;2.67;;;;;;;0.23;100.00;103508.19;5071075;28;20541;-75
2022/01/21 07:23:55;;;;;;;13.48;2.80;;;;;;;0.28;100.00;103509.34;5071479;28;20494;-75
2022/01/21 07:26:20;;;;;;;12.20;2.90;;;;;;;0.33;100.00;103517.28;5070524;28;20037;-75
2022/01/21 07:28:45;;;;;;;25.20;3.30;;;;;;;0.35;100.00;103516.59;5070642;28;20082;-75
2022/01/21 07:31:11;;;;;;;10.77;3.13;;;;;;;0.38;100.00;103515.91;5071402;28;20145;-75
2022/01/21 07:33:38;;;;;;;12.95;3.10;;;;;;;0.39;100.00;103517.66;5065221;28;20025;-75
2022/01/21 07:36:04;;;;;;;9.02;3.47;;;;;;;0.46;100.00;103526.56;5043876;28;20108;-75
2022/01/21 07:38:30;;;;;;;17.27;3.67;;;;;;;0.49;100.00;103529.28;5060864;28;20032;-77
2022/01/21 07:40:55;;;;;;;12.75;3.70;;;;;;;0.50;100.00;103526.84;5046809;28;20024;-77
2022/01/21 07:43:20;;;;;;;12.85;3.55;;;;;;;0.54;100.00;103522.81;5054219;28;20393;-77
2022/01/21 07:45:45;;;;;;;16.08;4.07;;;;;;;0.56;100.00;103509.34;5037318;28;20031;-77
2022/01/21 07:48:11;;;;;;;11.10;3.88;;;;;;;0.59;100.00;103504.44;5061833;28;20399;-77
2022/01/21 07:50:37;;;;;;;15.15;4.80;;;;;;;0.63;100.00;103510.59;5050082;28;20033;-77
2022/01/21 07:53:03;;;;;;;14.77;4.47;;;;;;;0.65;100.00;103507.34;5059811;28;20031;-77
2022/01/21 07:55:28;;;;;;;15.73;5.13;;;;;;;0.70;100.00;103500.84;5060243;28;20058;-77
2022/01/21 07:57:54;;;;;;;15.18;4.68;;;;;;;0.70;100.00;103493.19;5062167;28;20053;-77
2022/01/21 08:00:19;;;;;;;17.70;4.90;;;;;;;0.65;100.00;103492.03;5068134;28;20036;-77
2022/01/21 08:02:45;;;;;;;12.20;4.55;;;;;;;0.59;100.00;103494.22;5058328;28;20112;-76
2022/01/21 08:05:11;;;;;;;14.93;4.38;;;;;;;0.52;100.00;103486.13;5063076;28;20021;-77
2022/01/21 08:07:36;;;;;;;10.15;4.57;;;;;;;0.48;100.00;103485.03;5050842;28;20407;-77
2022/01/21 08:10:03;;;;;;;14.88;4.50;;;;;;;0.46;100.00;103484.09;5068729;28;20029;-77
2022/01/21 08:12:28;;;;;;;18.05;4.68;;;;;;;0.42;100.00;103487.22;5050775;28;20243;-76
2022/01/21 08:14:53;;;;;;;15.38;5.03;;;;;;;0.41;100.00;103490.56;5070407;28;20024;-76
2022/01/21 08:17:19;;;;;;;19.48;5.15;;;;;;;0.40;100.00;103478.63;5048740;28;20058;-76
2022/01/21 08:19:44;;;;;;;16.90;5.05;;;;;;;0.42;100.00;103476.13;5050790;28;20051;-76
2022/01/21 08:22:09;;;;;;;15.27;5.43;;;;;;;0.41;100.00;103472.69;5051869;28;20029;-75
2022/01/21 08:24:35;;;;;;;17.15;5.40;;;;;;;0.41;100.00;103470.16;5053653;28;20384;-75
2022/01/21 08:27:00;;;;;;;14.90;5.55;;;;;;;0.41;100.00;103474.41;5069662;28;20409;-75
2022/01/21 08:29:26;;;;;;;12.93;5.13;;;;;;;0.40;100.00;103481.16;5069982;28;20044;-75
2022/01/21 08:31:51;;;;;;;17.60;5.68;;;;;;;0.41;100.00;103484.59;5056516;28;20411;-75
2022/01/21 08:34:16;;;;;;;14.35;5.07;;;;;;;0.44;100.00;103487.31;5070156;28;20174;-75
2022/01/21 08:36:43;;;;;;;15.65;5.78;;;;;;;0.49;100.00;103499.56;5067616;28;20086;-74
2022/01/21 08:39:09;;;;;;;15.73;5.50;;;;;;;0.57;100.00;103506.00;5058124;28;20035;-75
2022/01/21 08:41:34;;;;;;;13.95;5.25;;;;;;;0.63;100.00;103500.38;5051905;28;20032;-75
2022/01/21 08:44:00;;;;;;;19.60;5.45;;;;;;;0.69;100.00;103498.19;5051602;28;20280;-75
2022/01/21 08:46:25;;;;;;;16.83;5.60;;;;;;;0.73;100.00;103498.47;5069804;28;20114;-75
2022/01/21 08:48:51;;;;;;;15.75;5.22;;;;;;;0.85;100.00;103502.53;5070296;28;20020;-75
2022/01/21 08:51:25;;;;;;;10.10;5.00;;;;;;;0.98;100.00;103503.34;5065954;28;20418;-75
2022/01/21 08:53:51;;;;;;;20.08;6.28;;;;;;;1.07;100.00;103505.53;5067829;28;20120;-75
2022/01/21 08:56:17;;;;;;;17.58;5.60;;;;;;;1.05;100.00;103512.22;5049834;28;20024;-75
2022/01/21 08:58:44;;;;;;;14.95;5.20;;;;;;;0.99;100.00;103504.22;5069444;28;20067;-76
2022/01/21 09:01:10;;;;;;;13.48;5.13;;;;;;;0.99;100.00;103506.78;5068847;28;20083;-75
2022/01/21 09:03:37;;;;;;;15.23;4.63;;;;;;;0.94;100.00;103488.63;5070060;28;20040;-73
2022/01/21 09:06:02;;;;;;;17.90;4.60;;;;;;;0.92;100.00;103477.44;5067031;28;20475;-74
2022/01/21 09:08:30;;;;;;;9.57;4.05;;;;;;;0.94;100.00;103486.09;5049980;28;20051;-74
2022/01/21 09:10:58;;;;;;;13.18;4.50;;;;;;;0.98;100.00;103482.03;5062810;28;20048;-75
2022/01/21 09:13:27;;;;;;;15.73;4.90;;;;;;;1.04;100.00;103483.25;5060563;28;20040;-74
2022/01/21 09:15:54;;;;;;;11.55;4.70;;;;;;;1.10;100.00;103480.16;5060367;28;20563;-74
2022/01/21 09:18:20;;;;;;;15.52;4.88;;;;;;;1.18;100.00;103486.59;5064911;28;20032;-79
2022/01/21 09:20:47;;;;;;;12.32;4.55;;;;;;;1.27;100.00;103483.69;5061110;28;20090;-80
2022/01/21 09:23:13;;;;;;;13.13;4.68;;;;;;;1.34;100.00;103478.13;5059173;28;20029;-80
2022/01/21 09:25:38;;;;;;;19.20;4.72;;;;;;;1.34;100.00;103479.03;5061707;28;20031;-80
2022/01/21 09:28:03;;;;;;;10.95;4.30;;;;;;;1.40;100.00;103481.91;5065586;28;20020;-80
2022/01/21 09:30:29;;;;;;;13.18;4.78;;;;;;;1.45;100.00;103482.16;5064502;28;20035;-80
2022/01/21 09:32:54;;;;;;;9.95;4.60;;;;;;;1.50;100.00;103485.88;5060411;28;20200;-80
2022/01/21 09:35:20;;;;;;;15.05;5.05;;;;;;;1.54;100.00;103493.78;5066764;28;20111;-80
2022/01/21 09:37:45;;;;;;;14.73;4.85;;;;;;;1.60;100.00;103498.34;5069203;28;20105;-80
2022/01/21 09:40:11;;;;;;;12.02;4.78;;;;;;;1.66;100.00;103500.38;5058264;28;20127;-80
2022/01/21 09:42:38;;;;;;;12.32;4.63;;;;;;;1.74;100.00;103496.56;5062751;28;20043;-80
2022/01/21 09:45:09;;;;;;;15.02;4.78;;;;;;;1.77;100.00;103496.75;5058730;28;20028;-80
2022/01/21 09:47:44;;;;;;;13.27;5.00;;;;;;;1.82;100.00;103492.75;5043164;28;20036;-80
2022/01/21 09:50:12;;;;;;;10.80;4.40;;;;;;;1.85;100.00;103487.78;5050408;28;20020;-74
2022/01/21 09:52:37;;;;;;;19.30;5.00;;;;;;;1.90;100.00;103492.38;5053586;28;20087;-75
2022/01/21 09:55:04;;;;;;;13.27;4.60;;;;;;;1.91;100.00;103500.94;5061279;28;20427;-75
2022/01/21 09:57:30;;;;;;;13.63;4.07;;;;;;;1.96;100.00;103513.16;5068917;28;20040;-75
2022/01/21 09:59:55;;;;;;;12.00;4.35;;;;;;;1.99;100.00;103510.75;5069051;28;20035;-74
2022/01/21 10:02:26;;;;;;;15.10;4.10;;;;;;;2.06;100.00;103511.09;5065441;28;20025;-74
2022/01/21 10:04:52;;;;;;;11.65;3.97;;;;;;;2.15;100.00;103514.16;5048959;28;20021;-74
2022/01/21 10:07:19;;;;;;;16.60;4.13;;;;;;;2.18;100.00;103525.44;5048911;28;20394;-74
2022/01/21 10:09:47;;;;;;;13.50;3.90;;;;;;;2.23;100.00;103526.56;5060473;28;20101;-74
2022/01/21 10:12:13;;;;;;;13.25;3.58;;;;;;;2.30;100.00;103533.75;5052563;28;20033;-75
2022/01/21 10:14:40;;;;;;;15.90;3.70;;;;;;;2.39;100.00;103533.34;5049157;28;20025;-74
2022/01/21 10:17:06;;;;;;;17.05;4.13;;;;;;;2.48;100.00;103536.41;5049381;28;20036;-74
2022/01/21 10:19:34;;;;;;;18.50;3.78;;;;;;;2.55;100.00;103547.84;5054292;28;20035;-80
2022/01/21 10:22:05;;;;;;;11.55;3.28;;;;;;;2.63;100.00;103533.78;5050364;28;20052;-80
2022/01/21 10:24:32;;;;;;;10.63;3.58;;;;;;;2.69;100.00;103534.97;5049682;28;20093;-81
2022/01/21 10:26:58;;;;;;;10.48;3.30;;;;;;;2.74;100.00;103530.94;5065275;28;20025;-80
2022/01/21 10:29:34;;;;;;;10.90;2.90;;;;;;;2.80;100.00;103540.63;5056514;28;20030;-81
2022/01/21 10:32:01;;;;;;;15.15;3.22;;;;;;;2.83;100.00;103530.56;5036710;28;20044;-80
2022/01/21 10:34:29;;;;;;;15.00;3.53;;;;;;;2.95;100.00;103538.84;5063823;28;20039;-80
2022/01/21 10:37:03;;;;;;;12.80;3.10;;;;;;;3.08;100.00;103538.66;5063793;28;20034;-80
2022/01/21 10:39:30;;;;;;;15.25;3.40;;;;;;;3.33;100.00;103555.28;5060016;28;20024;-80
2022/01/21 10:41:57;;;;;;;18.90;3.35;;;;;;;3.63;100.00;103554.19;5062980;28;20085;-80
2022/01/21 10:44:30;;;;;;;11.07;3.28;;;;;;;3.90;100.00;103546.94;5064844;28;20106;-81
2022/01/21 10:47:08;;;;;;;14.60;3.42;;;;;;;4.24;100.00;103539.97;5065486;28;20103;-81
2022/01/21 10:49:35;;;;;;;12.98;3.00;;;;;;;4.60;100.00;103533.06;5063935;28;20024;-74
2022/01/21 10:52:01;;;;;;;12.82;3.38;;;;;;;4.88;100.00;103527.41;5065935;28;20021;-74
2022/01/21 10:54:29;;;;;;;10.30;3.28;;;;;;;5.13;100.00;103524.19;5056942;28;20035;-74
2022/01/21 10:57:15;;;;;;;12.07;2.88;;;;;;;5.29;100.00;103528.28;5065113;28;20394;-74
2022/01/21 10:59:48;;;;;;;19.48;3.47;;;;;;;5.34;98.86;103530.22;5060150;28;20089;-74
2022/01/21 11:02:14;;;;;;;16.27;2.55;;;;;;;5.35;98.60;103531.97;5043985;28;20021;-74
2022/01/21 11:04:43;;;;;;;10.30;2.55;;;;;;;5.29;96.77;103529.16;5047595;28;20028;-74
2022/01/21 11:07:11;;;;;;;8.95;2.40;;;;;;;5.20;96.68;103518.47;5066938;28;20028;-74
2022/01/21 11:09:39;;;;;;;17.40;2.85;;;;;;;5.08;96.53;103511.16;5062918;28;20056;-74
2022/01/21 11:12:15;;;;;;;15.80;2.60;;;;;;;5.01;98.13;103506.56;5065394;28;20031;-74
2022/01/21 11:15:01;;;;;;;10.57;2.53;;;;;;;5.08;99.48;103498.28;5069758;28;20008;-75
2022/01/21 11:17:27;;;;;;;10.63;2.50;;;;;;;5.16;99.01;103498.59;5044985;28;20601;-74
2022/01/21 11:20:07;;;;;;;13.93;2.70;;;;;;;5.21;97.61;103494.53;5050280;28;20116;-74
2022/01/21 11:22:51;;;;;;;10.07;2.50;;;;;;;5.29;97.87;103492.28;5049670;28;20208;-74
2022/01/21 11:25:17;;;;;;;10.98;2.40;;;;;;;5.43;97.78;103491.13;5070582;28;20020;-74
2022/01/21 11:27:55;;;;;;;17.05;2.90;;;;;;;5.57;96.59;103480.56;5065222;28;20033;-74
2022/01/21 11:30:20;;;;;;;11.48;2.83;;;;;;;5.59;96.85;103483.22;5069813;28;20379;-74
2022/01/21 11:32:45;;;;;;;12.93;2.35;;;;;;;5.47;96.61;103483.59;5066448;28;20535;-74
2022/01/21 11:35:11;;;;;;;9.90;2.33;;;;;;;5.37;97.33;103486.63;5071288;28;20023;-74
2022/01/21 11:37:36;;;;;;;14.20;2.53;;;;;;;5.30;96.99;103489.78;5052128;28;20669;-75
2022/01/21 11:40:03;;;;;;;12.88;2.70;;;;;;;5.32;97.67;103487.25;5070937;28;20482;-74
2022/01/21 11:42:29;;;;;;;17.10;3.35;;;;;;;5.37;97.45;103491.78;5070967;28;20421;-74
2022/01/21 11:45:04;;;;;;;22.08;3.08;;;;;;;5.49;97.47;103481.97;5065640;28;20564;-74
2022/01/21 11:47:49;;;;;;;11.80;3.00;;;;;;;5.60;96.83;103473.78;5053086;28;20039;-74